createdAt,value
2023-01-29T00:02:10.432Z,101978.53
2023-01-29T00:04:37.423Z,101975.94
2023-01-29T00:07:04.389Z,101967.16
2023-01-29T00:09:32.247Z,101957.56
2023-01-29T00:11:59.094Z,101947.06
2023-01-29T00:14:27.835Z,101946.25
2023-01-29T00:16:55.021Z,101940.13
2023-01-29T00:19:21.953Z,101942.00
2023-01-29T00:21:48.859Z,101937.59
2023-01-29T00:24:15.884Z,101940.31
2023-01-29T00:26:43.515Z,101929.84
2023-01-29T00:29:10.683Z,101939.56
2023-01-29T00:31:37.847Z,101936.09
2023-01-29T00:34:05.107Z,101930.81
2023-01-29T00:36:31.960Z,101927.31
2023-01-29T00:39:00.875Z,101930.91
2023-01-29T00:41:48.513Z,101926.56
2023-01-29T00:44:34.201Z,101926.59
2023-01-29T00:47:01.338Z,101919.59
2023-01-29T00:49:28.283Z,101915.25
2023-01-29T00:52:15.428Z,101921.53
2023-01-29T00:54:42.345Z,101924.16
2023-01-29T00:57:09.175Z,101919.81
2023-01-29T00:59:36.063Z,101921.53
2023-01-29T01:02:21.821Z,101911.09
2023-01-29T01:04:48.815Z,101909.34
2023-01-29T01:07:15.949Z,101897.91
2023-01-29T01:10:03.253Z,101899.63
2023-01-29T01:12:31.141Z,101901.41
2023-01-29T01:14:58.195Z,101884.75
2023-01-29T01:17:25.266Z,101887.38
2023-01-29T01:19:52.173Z,101881.22
2023-01-29T01:22:19.259Z,101870.69
2023-01-29T01:24:46.148Z,101870.69
2023-01-29T01:27:13.555Z,101857.50
2023-01-29T01:29:41.302Z,101856.63
2023-01-29T01:32:08.264Z,101856.63
2023-01-29T01:34:35.189Z,101854.94
2023-01-29T01:37:02.255Z,101855.84
2023-01-29T01:39:29.282Z,101856.72
2023-01-29T01:41:56.325Z,101858.59
2023-01-29T01:44:59.570Z,101860.31
2023-01-29T01:47:36.728Z,101858.59
2023-01-29T01:50:09.152Z,101854.97
2023-01-29T01:52:41.026Z,101849.75
2023-01-29T01:55:09.822Z,101852.38
2023-01-29T01:57:37.012Z,101849.75
2023-01-29T02:00:11.400Z,101853.25
2023-01-29T02:02:59.843Z,101849.78
2023-01-29T02:05:46.913Z,101839.28
2023-01-29T02:08:33.437Z,101842.78
2023-01-29T02:11:01.439Z,101826.84
2023-01-29T02:13:28.467Z,101813.72
2023-01-29T02:15:55.286Z,101811.00
2023-01-29T02:18:22.377Z,101811.88
2023-01-29T02:21:05.605Z,101812.72
2023-01-29T02:23:38.407Z,101811.78
2023-01-29T02:26:23.688Z,101807.34
2023-01-29T02:29:21.835Z,101784.56
2023-01-29T02:31:57.343Z,101777.41
2023-01-29T02:35:11.326Z,101773.00
2023-01-29T02:38:07.492Z,101770.34
2023-01-29T02:40:54.923Z,101769.44
2023-01-29T02:43:30.847Z,101766.72
2023-01-29T02:46:16.640Z,101759.75
2023-01-29T02:48:47.282Z,101747.41
2023-01-29T02:51:58.458Z,101734.13
2023-01-29T02:54:34.095Z,101739.41
2023-01-29T02:57:16.445Z,101742.94
2023-01-29T02:59:54.432Z,101728.84
2023-01-29T03:02:29.499Z,101723.47
2023-01-29T03:05:02.005Z,101714.69
2023-01-29T03:07:47.161Z,101708.47
2023-01-29T03:10:18.330Z,101713.75
2023-01-29T03:12:51.369Z,101713.75
2023-01-29T03:15:28.873Z,101708.47
2023-01-29T03:17:55.849Z,101705.72
2023-01-29T03:20:32.438Z,101695.13
2023-01-29T03:23:06.764Z,101687.22
2023-01-29T03:25:55.171Z,101679.19
2023-01-29T03:28:41.961Z,101668.63
2023-01-29T03:31:32.768Z,101667.63
2023-01-29T03:34:16.749Z,101666.81
2023-01-29T03:37:00.364Z,101655.34
2023-01-29T03:39:28.914Z,101651.66
2023-01-29T03:42:05.153Z,101645.50
2023-01-29T03:44:56.944Z,101635.75
2023-01-29T03:47:45.626Z,101616.34
2023-01-29T03:50:18.523Z,101625.09
2023-01-29T03:52:50.641Z,101631.25
2023-01-29T03:55:24.674Z,101625.94
2023-01-29T03:58:14.957Z,101632.97
2023-01-29T04:00:47.313Z,101627.69
2023-01-29T04:03:34.400Z,101626.69
2023-01-29T04:06:10.092Z,101614.38
2023-01-29T04:08:55.203Z,101603.81
2023-01-29T04:11:23.631Z,101608.09
2023-01-29T04:13:51.742Z,101594.88
2023-01-29T04:16:24.210Z,101585.16
2023-01-29T04:18:52.164Z,101581.75
2023-01-29T04:21:19.479Z,101595.75
2023-01-29T04:23:46.301Z,101585.09
2023-01-29T04:26:28.284Z,101578.09
2023-01-29T04:29:06.437Z,101589.50
2023-01-29T04:31:43.436Z,101587.69
2023-01-29T04:34:36.410Z,101599.13
2023-01-29T04:37:09.650Z,101585.03
2023-01-29T04:40:00.098Z,101585.03
2023-01-29T04:42:50.191Z,101595.56
2023-01-29T04:45:20.470Z,101603.44
2023-01-29T04:48:02.859Z,101589.28
2023-01-29T04:50:42.881Z,101575.34
2023-01-29T04:53:09.680Z,101566.53
2023-01-29T04:55:44.757Z,101548.72
2023-01-29T04:58:33.496Z,101545.25
2023-01-29T05:01:02.484Z,101536.50
2023-01-29T05:03:32.754Z,101547.16
2023-01-29T05:06:01.949Z,101544.50
2023-01-29T05:08:31.543Z,101550.66
2023-01-29T05:10:59.975Z,101557.66
2023-01-29T05:13:30.191Z,101555.88
2023-01-29T05:16:19.619Z,101549.72
2023-01-29T05:18:46.952Z,101542.72
2023-01-29T05:21:13.952Z,101547.06
2023-01-29T05:23:53.435Z,101548.81
2023-01-29T05:26:40.299Z,101553.22
2023-01-29T05:29:07.264Z,101545.38
2023-01-29T05:31:34.072Z,101542.78
2023-01-29T05:34:00.877Z,101527.63
2023-01-29T05:36:27.756Z,101499.47
2023-01-29T05:38:54.630Z,101487.88
2023-01-29T05:41:21.482Z,101474.75
2023-01-29T05:43:48.510Z,101483.59
2023-01-29T05:46:15.420Z,101480.94
2023-01-29T05:48:42.271Z,101481.03
2023-01-29T05:51:09.056Z,101480.16
2023-01-29T05:53:35.994Z,101474.81
2023-01-29T05:56:04.284Z,101455.44
2023-01-29T05:58:32.438Z,101455.31
2023-01-29T06:01:07.637Z,101452.56
2023-01-29T06:03:34.461Z,101442.09
2023-01-29T06:06:02.430Z,101439.44
2023-01-29T06:08:29.280Z,101437.56
2023-01-29T06:10:56.106Z,101429.63
2023-01-29T06:13:23.786Z,101424.34
2023-01-29T06:15:50.687Z,101437.56
2023-01-29T06:18:17.822Z,101433.97
2023-01-29T06:20:44.705Z,101431.34
2023-01-29T06:23:11.707Z,101427.84
2023-01-29T06:25:38.607Z,101425.13
2023-01-29T06:28:06.138Z,101428.63
2023-01-29T06:30:33.228Z,101432.16
2023-01-29T06:33:01.810Z,101429.56
2023-01-29T06:35:29.014Z,101424.25
2023-01-29T06:37:57.039Z,101436.56
2023-01-29T06:40:23.929Z,101421.56
2023-01-29T06:42:50.790Z,101402.09
2023-01-29T06:45:17.585Z,101389.81
2023-01-29T06:47:44.502Z,101362.56
2023-01-29T06:50:11.957Z,101358.13
2023-01-29T06:52:38.798Z,101353.72
2023-01-29T06:55:06.242Z,101342.22
2023-01-29T06:57:33.074Z,101331.63
2023-01-29T06:59:59.960Z,101320.69
2023-01-29T07:02:26.889Z,101338.84
2023-01-29T07:04:53.816Z,101333.28
2023-01-29T07:07:20.703Z,101336.63
2023-01-29T07:09:47.555Z,101346.06
2023-01-29T07:12:14.364Z,101336.19
2023-01-29T07:14:41.227Z,101325.69
2023-01-29T07:17:08.077Z,101324.06
2023-01-29T07:19:34.883Z,101331.03
2023-01-29T07:22:03.496Z,101328.34
2023-01-29T07:24:30.498Z,101323.81
2023-01-29T07:26:57.385Z,101332.63
2023-01-29T07:29:24.576Z,101327.16
2023-01-29T07:31:51.567Z,101313.88
2023-01-29T07:34:18.628Z,101308.44
2023-01-29T07:36:45.492Z,101301.28
2023-01-29T07:39:12.448Z,101310.84
2023-01-29T07:41:39.362Z,101298.41
2023-01-29T07:44:06.226Z,101284.25
2023-01-29T07:46:33.029Z,101288.53
2023-01-29T07:48:59.916Z,101274.19
2023-01-29T07:51:26.859Z,101252.22
2023-01-29T07:53:53.781Z,101257.38
2023-01-29T07:56:20.843Z,101259.88
2023-01-29T07:58:47.780Z,101251.94
2023-01-29T08:01:14.863Z,101238.56
2023-01-29T08:03:42.511Z,101236.81
2023-01-29T08:06:09.531Z,101227.81
2023-01-29T08:08:36.377Z,101224.22
2023-01-29T08:11:05.845Z,101233.09
2023-01-29T08:13:33.701Z,101241.81
2023-01-29T08:16:02.049Z,101247.13
2023-01-29T08:18:29.451Z,101262.09
2023-01-29T08:21:02.811Z,101275.31
2023-01-29T08:23:30.252Z,101282.47
2023-01-29T08:25:57.230Z,101279.00
2023-01-29T08:28:24.483Z,101279.81
2023-01-29T08:30:51.600Z,101279.81
2023-01-29T08:33:23.743Z,101260.44
2023-01-29T08:35:53.577Z,101257.81
2023-01-29T08:38:20.572Z,101262.22
2023-01-29T08:40:47.600Z,101256.84
2023-01-29T08:43:14.802Z,101255.84
2023-01-29T08:45:44.102Z,101248.59
2023-01-29T08:48:11.917Z,101243.38
2023-01-29T08:50:38.997Z,101255.69
2023-01-29T08:53:08.313Z,101243.22
2023-01-29T08:55:41.838Z,101214.88
2023-01-29T08:58:11.699Z,101211.28
2023-01-29T09:00:39.102Z,101206.69
2023-01-29T09:03:08.230Z,101195.97
2023-01-29T09:05:38.154Z,101190.59
2023-01-29T09:08:05.875Z,101179.06
2023-01-29T09:10:32.807Z,101173.63
2023-01-29T09:13:02.036Z,101164.72
2023-01-29T09:15:29.164Z,101157.53
2023-01-29T09:17:56.221Z,101156.59
2023-01-29T09:20:23.092Z,101155.69
2023-01-29T09:22:52.262Z,101141.56
2023-01-29T09:25:19.395Z,101125.69
2023-01-29T09:27:46.427Z,101130.06
2023-01-29T09:30:13.739Z,101136.19
2023-01-29T09:32:56.048Z,101128.81
2023-01-29T09:35:23.651Z,101116.41
2023-01-29T09:37:51.513Z,101111.06
2023-01-29T09:40:32.174Z,101095.84
2023-01-29T09:43:10.763Z,101099.19
2023-01-29T09:45:44.114Z,101088.66
2023-01-29T09:48:13.451Z,101079.78
2023-01-29T09:50:43.891Z,101098.31
2023-01-29T09:53:39.371Z,101084.91
2023-01-29T09:56:16.345Z,101106.13
2023-01-29T09:58:44.469Z,101102.34
2023-01-29T10:01:36.691Z,101079.19
2023-01-29T10:04:15.615Z,101072.13
2023-01-29T10:07:08.298Z,101057.75
2023-01-29T10:09:47.025Z,101038.25
2023-01-29T10:12:27.603Z,101025.63
2023-01-29T10:15:12.261Z,101006.91
2023-01-29T10:17:51.361Z,101008.50
2023-01-29T10:20:51.370Z,100998.84
2023-01-29T10:23:28.816Z,100998.50
2023-01-29T10:25:56.320Z,101002.78
2023-01-29T10:28:38.604Z,101006.13
2023-01-29T10:31:16.157Z,100999.78
2023-01-29T10:34:01.347Z,100991.66
2023-01-29T10:36:39.055Z,100998.50
2023-01-29T10:39:06.289Z,100996.53
2023-01-29T10:41:39.036Z,100977.69
2023-01-29T10:44:24.940Z,100990.78
2023-01-29T10:47:17.467Z,100983.41
2023-01-29T10:49:59.634Z,100992.91
2023-01-29T10:53:03.936Z,100981.16
2023-01-29T10:56:14.160Z,100984.41
2023-01-29T10:59:31.428Z,100965.75
2023-01-29T11:02:03.529Z,100973.34
2023-01-29T11:04:32.925Z,100959.91
2023-01-29T11:07:09.446Z,100961.34
2023-01-29T11:09:45.177Z,100958.47
2023-01-29T11:12:16.942Z,100965.28
2023-01-29T11:14:54.460Z,100961.41
2023-01-29T11:17:26.276Z,100937.16
2023-01-29T11:19:57.714Z,100933.34
2023-01-29T11:22:27.430Z,100917.25
2023-01-29T11:25:18.786Z,100920.66
2023-01-29T11:27:48.616Z,100915.16
2023-01-29T11:30:39.643Z,100915.84
2023-01-29T11:33:24.690Z,100905.97
2023-01-29T11:35:56.470Z,100903.41
2023-01-29T11:38:26.683Z,100907.31
2023-01-29T11:41:05.303Z,100900.16
2023-01-29T11:43:32.993Z,100912.50
2023-01-29T11:46:08.862Z,100913.38
2023-01-29T11:48:43.521Z,100909.00
2023-01-29T11:51:20.723Z,100883.50
2023-01-29T11:53:55.981Z,100873.84
2023-01-29T11:56:27.347Z,100867.56
2023-01-29T11:58:57.853Z,100866.63
2023-01-29T12:01:38.821Z,100864.72
2023-01-29T12:04:19.880Z,100863.00
2023-01-29T12:06:52.243Z,100844.34
2023-01-29T12:09:27.517Z,100847.69
2023-01-29T12:11:55.023Z,100834.28
2023-01-29T12:14:38.574Z,100831.34
2023-01-29T12:17:08.586Z,100816.94
2023-01-29T12:19:45.735Z,100813.97
2023-01-29T12:22:22.742Z,100791.38
2023-01-29T12:24:53.191Z,100781.41
2023-01-29T12:27:29.041Z,100767.19
2023-01-29T12:30:13.699Z,100767.94
2023-01-29T12:33:24.769Z,100752.56
2023-01-29T12:36:01.053Z,100714.44
2023-01-29T12:38:28.041Z,100737.38
2023-01-29T12:41:05.603Z,100733.78
2023-01-29T12:43:55.578Z,100710.59
2023-01-29T12:46:27.622Z,100732.50
2023-01-29T12:48:58.278Z,100718.91
2023-01-29T12:51:41.107Z,100715.31
2023-01-29T12:54:14.275Z,100699.38
2023-01-29T12:56:47.483Z,100711.47
2023-01-29T12:59:46.527Z,100700.78
2023-01-29T13:03:08.257Z,100692.69
2023-01-29T13:06:22.174Z,100672.16
2023-01-29T13:08:55.109Z,100650.91
2023-01-29T13:11:34.421Z,100637.44
2023-01-29T13:14:09.171Z,100634.78
2023-01-29T13:16:44.192Z,100631.16
2023-01-29T13:19:29.839Z,100633.72
2023-01-29T13:22:00.189Z,100627.44
2023-01-29T13:24:35.691Z,100611.50
2023-01-29T13:27:02.745Z,100587.59
2023-01-29T13:29:31.358Z,100600.03
2023-01-29T13:32:01.101Z,100587.69
2023-01-29T13:34:43.338Z,100588.44
2023-01-29T13:37:16.555Z,100589.31
2023-01-29T13:39:53.920Z,100578.78
2023-01-29T13:42:26.147Z,100567.19
2023-01-29T13:44:56.034Z,100547.75
2023-01-29T13:47:28.127Z,100517.78
2023-01-29T13:50:09.063Z,100516.19
2023-01-29T13:52:54.124Z,100512.69
2023-01-29T13:55:34.153Z,100492.50
2023-01-29T13:58:06.425Z,100500.66
2023-01-29T14:00:33.547Z,100484.31
2023-01-29T14:03:00.388Z,100483.69
2023-01-29T14:05:30.494Z,100474.13
2023-01-29T14:07:59.729Z,100475.19
2023-01-29T14:10:29.971Z,100471.78
2023-01-29T14:13:12.242Z,100479.94
2023-01-29T14:15:40.538Z,100480.94
2023-01-29T14:18:21.667Z,100465.00
2023-01-29T14:20:48.810Z,100472.09
2023-01-29T14:23:41.779Z,100474.56
2023-01-29T14:26:25.427Z,100467.66
2023-01-29T14:29:25.497Z,100455.09
2023-01-29T14:32:12.786Z,100450.66
2023-01-29T14:34:59.743Z,100455.31
2023-01-29T14:37:33.947Z,100447.56
2023-01-29T14:40:19.133Z,100419.53
2023-01-29T14:42:55.549Z,100409.88
2023-01-29T14:45:32.162Z,100431.22
2023-01-29T14:48:37.432Z,100429.44
2023-01-29T14:51:11.294Z,100410.94
2023-01-29T14:53:49.965Z,100405.53
2023-01-29T14:56:28.544Z,100394.28
2023-01-29T14:59:06.364Z,100384.50
2023-01-29T15:01:38.096Z,100377.50
2023-01-29T15:04:36.389Z,100379.41
2023-01-29T15:07:12.078Z,100374.97
2023-01-29T15:10:20.905Z,100371.31
2023-01-29T15:13:04.153Z,100380.88
2023-01-29T15:15:44.705Z,100375.56
2023-01-29T15:18:30.426Z,100395.00
2023-01-29T15:21:06.312Z,100393.19
2023-01-29T15:23:34.990Z,100400.22
2023-01-29T15:26:05.112Z,100392.25
2023-01-29T15:28:34.459Z,100397.44
2023-01-29T15:31:12.357Z,100389.34
2023-01-29T15:33:43.438Z,100391.06
2023-01-29T15:36:17.889Z,100392.78
2023-01-29T15:38:45.630Z,100413.16
2023-01-29T15:41:15.686Z,100404.88
2023-01-29T15:43:48.905Z,100395.94
2023-01-29T15:46:38.618Z,100412.63
2023-01-29T15:49:16.744Z,100420.81
2023-01-29T15:51:44.052Z,100425.25
2023-01-29T15:54:16.032Z,100429.63
2023-01-29T15:56:53.883Z,100418.88
2023-01-29T15:59:31.429Z,100435.56
2023-01-29T16:01:58.429Z,100419.72
2023-01-29T16:04:29.229Z,100422.28
2023-01-29T16:06:58.420Z,100433.78
2023-01-29T16:09:27.595Z,100432.91
2023-01-29T16:11:58.455Z,100427.41
2023-01-29T16:14:26.920Z,100414.13
2023-01-29T16:16:54.367Z,100417.59
2023-01-29T16:19:27.232Z,100425.69
2023-01-29T16:22:03.587Z,100420.16
2023-01-29T16:24:32.855Z,100429.81
2023-01-29T16:27:07.437Z,100423.34
2023-01-29T16:29:35.910Z,100437.13
2023-01-29T16:32:03.974Z,100443.94
2023-01-29T16:34:38.709Z,100445.63
2023-01-29T16:37:17.674Z,100457.75
2023-01-29T16:39:47.551Z,100454.84
2023-01-29T16:42:20.597Z,100448.34
2023-01-29T16:44:52.355Z,100457.81
2023-01-29T16:47:37.246Z,100447.97
2023-01-29T16:50:24.791Z,100454.72
2023-01-29T16:53:02.355Z,100454.53
2023-01-29T16:55:47.215Z,100463.44
2023-01-29T16:58:20.333Z,100479.16
2023-01-29T17:00:51.293Z,100458.75
2023-01-29T17:03:19.061Z,100455.16
2023-01-29T17:05:47.307Z,100469.06
2023-01-29T17:08:27.467Z,100472.47
2023-01-29T17:10:54.477Z,100476.06
2023-01-29T17:13:40.251Z,100482.13
2023-01-29T17:16:22.735Z,100491.38
2023-01-29T17:18:50.064Z,100507.03
2023-01-29T17:21:17.260Z,100505.09
2023-01-29T17:23:46.927Z,100509.44
2023-01-29T17:26:14.999Z,100495.09
2023-01-29T17:28:42.749Z,100498.72
2023-01-29T17:31:10.574Z,100487.84
2023-01-29T17:33:41.933Z,100479.03
2023-01-29T17:36:14.140Z,100488.72
2023-01-29T17:38:41.655Z,100478.28
2023-01-29T17:41:20.182Z,100479.03
2023-01-29T17:43:47.316Z,100513.81
2023-01-29T17:46:16.279Z,100493.59
2023-01-29T17:48:43.744Z,100518.38
2023-01-29T17:51:16.163Z,100523.72
2023-01-29T17:53:46.451Z,100518.59
2023-01-29T17:56:19.152Z,100521.91
2023-01-29T17:58:46.250Z,100535.19
2023-01-29T18:01:13.331Z,100546.91
2023-01-29T18:03:40.499Z,100568.38
2023-01-29T18:06:09.397Z,100567.75
2023-01-29T18:08:38.616Z,100564.34
2023-01-29T18:11:07.302Z,100584.00
2023-01-29T18:13:36.357Z,100579.72
2023-01-29T18:16:03.488Z,100591.19
2023-01-29T18:18:30.545Z,100592.25
2023-01-29T18:20:57.839Z,100590.47
2023-01-29T18:23:24.976Z,100589.59
2023-01-29T18:25:53.128Z,100599.81
2023-01-29T18:28:20.328Z,100585.47
2023-01-29T18:30:47.963Z,100580.91
2023-01-29T18:33:16.581Z,100578.97
2023-01-29T18:35:50.726Z,100584.19
2023-01-29T18:38:18.244Z,100581.63
2023-01-29T18:40:45.089Z,100595.66
2023-01-29T18:43:13.709Z,100591.09
2023-01-29T18:45:41.226Z,100589.50
2023-01-29T18:48:08.421Z,100599.72
2023-01-29T18:50:35.682Z,100595.28
2023-01-29T18:53:04.753Z,100603.97
2023-01-29T18:55:32.004Z,100614.53
2023-01-29T18:58:28.104Z,100609.09
2023-01-29T19:00:48.145Z,100611.94
2023-01-29T19:03:15.349Z,100606.75
2023-01-29T19:05:42.572Z,100598.03
2023-01-29T19:08:10.541Z,100608.84
2023-01-29T19:10:37.858Z,100618.41
2023-01-29T19:13:06.597Z,100593.13
2023-01-29T19:15:34.858Z,100598.03
2023-01-29T19:18:02.150Z,100600.34
2023-01-29T19:20:29.195Z,100611.84
2023-01-29T19:22:56.516Z,100620.34
2023-01-29T19:25:23.843Z,100616.63
2023-01-29T19:27:52.132Z,100624.50
2023-01-29T19:30:19.780Z,100625.44
2023-01-29T19:32:50.045Z,100638.66
2023-01-29T19:35:17.341Z,100637.78
2023-01-29T19:37:45.047Z,100651.50
2023-01-29T19:40:12.709Z,100652.25
2023-01-29T19:42:42.139Z,100644.03
2023-01-29T19:45:10.352Z,100638.72
2023-01-29T19:47:42.180Z,100640.31
2023-01-29T19:50:13.456Z,100653.41
2023-01-29T19:52:51.088Z,100664.03
2023-01-29T19:55:21.101Z,100666.69
2023-01-29T19:57:48.908Z,100658.84
2023-01-29T20:00:18.300Z,100667.75
2023-01-29T20:02:48.638Z,100655.44
2023-01-29T20:05:18.884Z,100660.97
2023-01-29T20:07:46.751Z,100669.03
2023-01-29T20:10:18.066Z,100665.00
2023-01-29T20:12:46.793Z,100646.50
2023-01-29T20:15:15.277Z,100646.06
2023-01-29T20:17:42.743Z,100654.47
2023-01-29T20:20:10.897Z,100661.06
2023-01-29T20:22:38.232Z,100663.41
2023-01-29T20:25:05.691Z,100674.16
2023-01-29T20:27:32.764Z,100662.34
2023-01-29T20:30:00.357Z,100653.31
2023-01-29T20:32:28.136Z,100658.72
2023-01-29T20:34:55.309Z,100659.22
2023-01-29T20:37:23.276Z,100678.78
2023-01-29T20:39:50.699Z,100684.50
2023-01-29T20:42:17.926Z,100679.00
2023-01-29T20:44:45.107Z,100681.75
2023-01-29T20:47:12.616Z,100680.91
2023-01-29T20:49:40.198Z,100686.44
2023-01-29T20:52:10.122Z,100687.50
2023-01-29T20:54:37.478Z,100688.63
2023-01-29T20:57:05.305Z,100696.72
2023-01-29T20:59:32.684Z,100686.09
2023-01-29T21:02:00.112Z,100688.84
2023-01-29T21:04:27.927Z,100686.38
2023-01-29T21:06:55.242Z,100691.06
2023-01-29T21:09:22.434Z,100687.69
2023-01-29T21:11:49.527Z,100688.81
2023-01-29T21:14:16.715Z,100679.25
2023-01-29T21:16:44.206Z,100686.56
2023-01-29T21:19:15.492Z,100673.47
2023-01-29T21:21:43.117Z,100680.16
2023-01-29T21:24:12.207Z,100680.91
2023-01-29T21:26:40.845Z,100679.31
2023-01-29T21:29:10.878Z,100688.53
2023-01-29T21:31:37.995Z,100701.25
2023-01-29T21:34:05.979Z,100686.56
2023-01-29T21:36:34.454Z,100703.66
2023-01-29T21:39:02.523Z,100697.63
2023-01-29T21:41:49.194Z,100704.81
2023-01-29T21:44:16.876Z,100696.78
2023-01-29T21:46:46.065Z,100710.56
2023-01-29T21:49:15.165Z,100718.22
2023-01-29T21:51:47.909Z,100713.31
2023-01-29T21:54:16.951Z,100718.22
2023-01-29T21:56:45.541Z,100707.44
2023-01-29T21:59:12.931Z,100712.38
2023-01-29T22:01:40.055Z,100711.06
2023-01-29T22:04:09.275Z,100714.94
2023-01-29T22:06:38.049Z,100711.03
2023-01-29T22:09:07.816Z,100718.25
2023-01-29T22:11:35.927Z,100717.66
2023-01-29T22:14:05.213Z,100709.16
2023-01-29T22:16:33.460Z,100707.78
2023-01-29T22:19:03.983Z,100707.97
2023-01-29T22:21:35.873Z,100709.13
2023-01-29T22:24:04.170Z,100716.50
2023-01-29T22:26:33.335Z,100710.63
2023-01-29T22:29:01.117Z,100723.28
2023-01-29T22:31:28.405Z,100732.16
2023-01-29T22:33:56.288Z,100727.16
2023-01-29T22:36:23.559Z,100729.94
2023-01-29T22:38:51.292Z,100719.53
2023-01-29T22:41:18.770Z,100727.75
2023-01-29T22:43:45.739Z,100711.94
2023-01-29T22:46:13.120Z,100714.88
2023-01-29T22:48:40.179Z,100718.63
2023-01-29T22:51:10.358Z,100723.16
2023-01-29T22:53:43.589Z,100709.34
2023-01-29T22:56:12.661Z,100706.78
2023-01-29T22:58:39.734Z,100701.75
2023-01-29T23:01:07.119Z,100696.66
2023-01-29T23:03:35.175Z,100688.88
2023-01-29T23:06:02.891Z,100696.03
2023-01-29T23:08:32.366Z,100700.56
2023-01-29T23:11:14.789Z,100696.31
2023-01-29T23:13:53.455Z,100713.31
2023-01-29T23:16:25.778Z,100706.31
2023-01-29T23:18:56.023Z,100702.03
2023-01-29T23:21:25.444Z,100709.22
2023-01-29T23:23:53.036Z,100704.00
2023-01-29T23:26:39.348Z,100697.03
2023-01-29T23:29:07.910Z,100695.41
2023-01-29T23:31:35.356Z,100693.88
2023-01-29T23:34:02.444Z,100701.03
2023-01-29T23:36:29.472Z,100695.00
2023-01-29T23:38:56.401Z,100697.81
2023-01-29T23:41:23.434Z,100688.16
2023-01-29T23:43:50.514Z,100684.00
2023-01-29T23:46:17.612Z,100701.53
2023-01-29T23:48:44.608Z,100697.28
2023-01-29T23:51:11.661Z,100696.63
2023-01-29T23:53:39.042Z,100702.84
2023-01-29T23:56:06.373Z,100710.03
2023-01-29T23:58:34.232Z,100697.81
